Time;durP1;ratioP1;P1;durP2;ratioP2;P2;SDS_P1;SDS_P2;PMS_P1;PMS_P2;Temp;Humidity;BMP_temperature;BMP_pressure;BME280_temperature;BME280_humidity;BME280_pressure;Samples;Min_cycle;Max_cycle;Signal;HPM_P1;HPM_P2
2022/06/03 00:02:09;;;;;;;;;;;;;;;-144.99;98.94;52427.72;4935090;29;20065;-65
2022/06/03 00:04:57;;;;;;;;;;;;;;;-144.99;99.52;52433.81;4931065;29;19974;-59
2022/06/03 00:07:32;;;;;;;;;;;;;;;-144.99;99.55;52399.19;4934262;29;20094;-60
2022/06/03 00:10:07;;;;;;;;;;;;;;;-144.99;99.35;52433.81;4938810;29;20075;-60
2022/06/03 00:12:48;;;;;;;;;;;;;;;-144.99;99.41;52403.25;4931024;29;20063;-63
2022/06/03 00:15:27;;;;;;;;;;;;;;;-144.99;98.82;52423.63;4934220;29;20232;-61
2022/06/03 00:17:59;;;;;;;;;;;;;;;-144.99;98.77;52427.72;4936193;29;20503;-61
2022/06/03 00:20:35;;;;;;;;;;;;;;;-144.99;99.19;52458.28;4943575;29;19979;-61
2022/06/03 00:23:11;;;;;;;;;;;;;;;-144.99;98.56;52441.97;4936988;29;19980;-61
2022/06/03 00:25:52;;;;;;;;;;;;;;;-144.99;99.06;52421.59;4932151;29;19979;-61
2022/06/03 00:28:34;;;;;;;;;;;;;;;-144.99;99.60;52439.94;4934451;29;20498;-61
2022/06/03 00:31:08;;;;;;;;;;;;;;;-144.99;99.55;52411.41;4928169;29;19974;-62
2022/06/03 00:33:44;;;;;;;;;;;;;;;-144.99;99.64;52423.63;4934445;29;20383;-61
2022/06/03 00:36:20;;;;;;;;;;;;;;;-144.99;99.58;52421.59;4938225;29;20009;-60
2022/06/03 00:39:00;;;;;;;;;;;;;;;-144.99;100.00;52452.16;4934058;29;20103;-60
2022/06/03 00:41:32;;;;;;;;;;;;;;;-144.99;100.00;52476.63;4934883;29;20485;-66
2022/06/03 00:44:16;;;;;;;;;;;;;;;-144.99;100.00;52464.41;4939746;29;19978;-66
2022/06/03 00:46:54;;;;;;;;;;;;;;;-144.99;100.00;52441.97;4930687;29;20100;-65
2022/06/03 00:49:31;;;;;;;;;;;;;;;-144.99;100.00;52448.09;4929698;29;20020;-64
2022/06/03 00:52:15;;;;;;;;;;;;;;;-144.99;100.00;52456.25;4958698;23;20453;-61
2022/06/03 00:54:57;;;;;;;;;;;;;;;-144.99;100.00;52425.66;4944467;29;20524;-60
2022/06/03 00:57:38;;;;;;;;;;;;;;;-144.99;100.00;52423.63;4941529;28;20091;-60
2022/06/03 01:00:08;;;;;;;;;;;;;;;-144.99;100.00;52423.63;4918688;29;19992;-60
2022/06/03 01:02:51;;;;;;;;;;;;;;;-144.99;100.00;52460.31;4927170;29;20069;-61
2022/06/03 01:05:25;;;;;;;;;;;;;;;-144.99;100.00;52462.34;4929534;29;19984;-59
2022/06/03 01:08:00;;;;;;;;;;;;;;;-144.99;100.00;52435.88;4928750;29;20144;-59
2022/06/03 01:10:34;;;;;;;;;;;;;;;-144.99;100.00;52452.16;4928695;29;19981;-58
2022/06/03 01:13:16;;;;;;;;;;;;;;;-144.99;100.00;52464.41;4929491;29;19985;-59
2022/06/03 01:15:47;;;;;;;;;;;;;;;-144.99;100.00;52415.47;4929892;29;20286;-59
2022/06/03 01:18:25;;;;;;;;;;;;;;;-144.99;100.00;52441.97;4928731;29;20130;-61
2022/06/03 01:21:05;;;;;;;;;;;;;;;-144.99;100.00;52415.47;4930873;29;20782;-62
2022/06/03 01:23:45;;;;;;;;;;;;;;;-144.99;100.00;52386.94;4931813;29;20005;-60
2022/06/03 01:26:27;;;;;;;;;;;;;;;-144.99;100.00;52431.78;4932994;29;20056;-60
2022/06/03 01:29:18;;;;;;;;;;;;;;;-144.99;100.00;52415.47;4930785;29;20334;-60
2022/06/03 01:32:03;;;;;;;;;;;;;;;-144.99;100.00;52431.78;4929992;29;20057;-60
2022/06/03 01:34:38;;;;;;;;;;;;;;;-144.99;100.00;52448.09;4930954;29;19973;-60
2022/06/03 01:37:10;;;;;;;;;;;;;;;-144.99;100.00;52391.03;4935035;29;20044;-59
2022/06/03 01:39:48;;;;;;;;;;;;;;;-144.99;100.00;52439.94;4925476;29;20373;-58
2022/06/03 01:42:36;;;;;;;;;;;;;;;-144.99;100.00;52419.56;4930331;29;20500;-59
2022/06/03 01:45:26;;;;;;;;;;;;;;;-144.99;100.00;52448.09;4929230;29;19982;-58
2022/06/03 01:48:11;;;;;;;;;;;;;;;-144.99;100.00;52452.16;4907645;29;20081;-59
2022/06/03 01:50:49;;;;;;;;;;;;;;;-144.99;100.00;52427.72;4930167;29;20071;-60
2022/06/03 01:53:38;;;;;;;;;;;;;;;-144.99;100.00;52435.88;4931437;29;20074;-57
2022/06/03 01:56:22;;;;;;;;;;;;;;;-144.99;100.00;52427.72;4932608;29;19973;-59
2022/06/03 01:59:09;;;;;;;;;;;;;;;-144.99;100.00;52446.06;4931439;29;20632;-58
2022/06/03 02:01:51;;;;;;;;;;;;;;;-144.99;100.00;52386.94;4925776;29;20079;-59
2022/06/03 02:04:27;;;;;;;;;;;;;;;-144.99;100.00;52425.66;4898513;29;20028;-58
2022/06/03 02:07:12;;;;;;;;;;;;;;;-144.99;100.00;52468.47;4925710;29;20083;-59
2022/06/03 02:10:05;;;;;;;;;;;;;;;-144.99;100.00;52444.03;4932345;29;20317;-58
2022/06/03 02:12:45;;;;;;;;;;;;;;;-144.99;100.00;52456.25;4921928;29;20072;-58
2022/06/03 02:15:28;;;;;;;;;;;;;;;-144.99;100.00;52431.78;4929496;29;20059;-58
2022/06/03 02:18:12;;;;;;;;;;;;;;;-144.99;100.00;52448.09;4925888;29;20091;-58
2022/06/03 02:20:55;;;;;;;;;;;;;;;-144.99;100.00;52415.47;4918759;29;20118;-57
2022/06/03 02:23:42;;;;;;;;;;;;;;;-144.99;100.00;52425.66;4929166;29;20032;-57
2022/06/03 02:26:26;;;;;;;;;;;;;;;-144.99;100.00;52431.78;4923812;29;19986;-57
2022/06/03 02:31:51;;;;;;;;;;;;;;;-144.99;100.00;52460.31;4929025;29;19974;-58
2022/06/03 02:34:31;;;;;;;;;;;;;;;-144.99;100.00;52452.16;4927748;29;20488;-57
2022/06/03 02:37:10;;;;;;;;;;;;;;;-144.99;100.00;52488.84;4927130;29;20005;-58
2022/06/03 02:39:47;;;;;;;;;;;;;;;-144.99;100.00;52427.72;4927992;29;20455;-57
2022/06/03 02:42:29;;;;;;;;;;;;;;;-144.99;100.00;52419.56;4927672;29;20071;-57
2022/06/03 02:45:06;;;;;;;;;;;;;;;-144.99;100.00;52437.91;4928309;29;20146;-57
2022/06/03 02:47:47;;;;;;;;;;;;;;;-144.99;100.00;52411.41;4926658;29;20553;-58
2022/06/03 02:50:41;;;;;;;;;;;;;;;-144.99;100.00;52464.41;4926542;29;20433;-57
2022/06/03 02:53:31;;;;;;;;;;;;;;;-144.99;100.00;52435.88;4929492;29;20059;-56
2022/06/03 02:56:06;;;;;;;;;;;;;;;-144.99;100.00;52421.59;4873439;29;20031;-56
2022/06/03 02:58:59;;;;;;;;;;;;;;;-144.99;100.00;52458.28;4929617;29;19994;-56
2022/06/03 03:01:48;;;;;;;;;;;;;;;-144.99;100.00;52431.78;4893620;29;20070;-57
2022/06/03 03:04:29;;;;;;;;;;;;;;;-144.99;100.00;52427.72;4930274;29;19978;-57
2022/06/03 03:07:16;;;;;;;;;;;;;;;-144.99;100.00;52448.09;4928961;29;20116;-57
2022/06/03 03:10:01;;;;;;;;;;;;;;;-144.99;100.00;52456.25;4930308;29;19981;-56
2022/06/03 03:12:46;;;;;;;;;;;;;;;-144.99;100.00;52439.94;4926391;29;20357;-56
2022/06/03 03:15:21;;;;;;;;;;;;;;;-144.99;100.00;52456.25;4929767;29;20079;-57
2022/06/03 03:18:12;;;;;;;;;;;;;;;-144.99;100.00;52503.13;4928378;29;20101;-57
2022/06/03 03:20:57;;;;;;;;;;;;;;;-144.99;100.00;52464.41;4934379;29;20458;-57
2022/06/03 03:23:42;;;;;;;;;;;;;;;-144.99;100.00;52448.09;4935241;29;20013;-56
2022/06/03 03:26:15;;;;;;;;;;;;;;;-144.99;100.00;52411.41;4944058;29;20493;-57
2022/06/03 03:28:47;;;;;;;;;;;;;;;-144.99;100.00;52421.59;4933580;29;19980;-57
2022/06/03 03:31:20;;;;;;;;;;;;;;;-144.99;100.00;52407.31;4941238;29;19983;-57
2022/06/03 03:34:03;;;;;;;;;;;;;;;-144.99;100.00;52435.88;4931468;29;19976;-57
2022/06/03 03:36:46;;;;;;;;;;;;;;;-144.99;100.00;52444.03;4934057;29;19972;-57
2022/06/03 03:39:43;;;;;;;;;;;;;;;-144.99;100.00;52413.44;4931250;29;19992;-57
2022/06/03 03:42:25;;;;;;;;;;;;;;;-144.99;100.00;52407.31;4870335;29;20076;-57
2022/06/03 03:45:11;;;;;;;;;;;;;;;-144.99;100.00;52431.78;4918759;29;19992;-57
2022/06/03 03:47:51;;;;;;;;;;;;;;;-144.99;100.00;52456.25;4927589;29;20524;-59
2022/06/03 03:50:43;;;;;;;;;;;;;;;-144.99;100.00;52427.72;4932401;29;20072;-67
2022/06/03 03:53:29;;;;;;;;;;;;;;;-144.99;100.00;52435.88;4929824;29;20076;-60
2022/06/03 03:56:08;;;;;;;;;;;;;;;-144.99;100.00;52439.94;4936188;29;20437;-60
2022/06/03 03:58:56;;;;;;;;;;;;;;;-144.99;100.00;52452.16;4927422;29;20021;-60
2022/06/03 04:01:41;;;;;;;;;;;;;;;-144.99;100.00;52425.66;4925620;29;19977;-61
2022/06/03 04:04:22;;;;;;;;;;;;;;;-144.99;100.00;52452.16;4927195;29;19976;-60
2022/06/03 04:07:03;;;;;;;;;;;;;;;-144.99;100.00;52419.56;4927712;29;20113;-60
2022/06/03 04:09:41;;;;;;;;;;;;;;;-144.99;100.00;52415.47;4930837;29;19973;-63
2022/06/03 04:12:22;;;;;;;;;;;;;;;-144.99;100.00;52431.78;4929948;29;19973;-60
2022/06/03 04:15:03;;;;;;;;;;;;;;;-144.99;100.00;52411.41;4916576;29;19985;-60
2022/06/03 04:17:47;;;;;;;;;;;;;;;-144.99;100.00;52441.97;4927200;29;20603;-62
2022/06/03 04:20:28;;;;;;;;;;;;;;;-144.99;100.00;52456.25;4928443;29;20083;-63
2022/06/03 04:23:06;;;;;;;;;;;;;;;-144.99;100.00;52382.88;4931149;29;20080;-65
2022/06/03 04:25:59;;;;;;;;;;;;;;;-144.99;100.00;52403.25;4932524;29;20008;-65
2022/06/03 04:28:44;;;;;;;;;;;;;;;-144.99;100.00;52384.91;4934548;29;19990;-63
2022/06/03 04:31:26;;;;;;;;;;;;;;;-144.99;100.00;52421.59;4935906;29;20077;-65
2022/06/03 04:33:58;;;;;;;;;;;;;;;-144.99;100.00;52391.03;4902817;29;19978;-64
2022/06/03 04:36:46;;;;;;;;;;;;;;;-144.99;100.00;52382.88;4933392;29;20132;-63
2022/06/03 04:39:31;;;;;;;;;;;;;;;-144.99;100.00;52407.31;4934418;29;20001;-63
2022/06/03 04:42:31;;;;;;;;;;;;;;;-144.99;100.00;52439.94;4938964;29;20417;-67
2022/06/03 04:45:20;;;;;;;;;;;;;;;-144.99;100.00;52431.78;4932469;29;20012;-65
2022/06/03 04:48:05;;;;;;;;;;;;;;;-144.99;100.00;52415.47;4936378;29;20013;-64
2022/06/03 04:51:06;;;;;;;;;;;;;;;-144.99;100.00;52411.41;4937218;29;20004;-64
2022/06/03 04:53:59;;;;;;;;;;;;;;;-144.99;100.00;52411.41;4872896;29;20310;-65
2022/06/03 04:56:55;;;;;;;;;;;;;;;-144.99;100.00;52391.03;4891110;29;19969;-65
2022/06/03 04:59:51;;;;;;;;;;;;;;;-144.99;100.00;52427.72;4895802;29;19998;-65
2022/06/03 05:02:32;;;;;;;;;;;;;;;-144.99;100.00;52391.03;4938400;29;20086;-66
2022/06/03 05:05:17;;;;;;;;;;;;;;;-144.99;100.00;52395.09;4936445;29;20036;-66
2022/06/03 05:07:57;;;;;;;;;;;;;;;-144.99;100.00;52380.84;4939836;29;20420;-65
2022/06/03 05:10:49;;;;;;;;;;;;;;;-144.99;100.00;52368.59;4606418;29;9999659;-71
2022/06/03 05:13:44;;;;;;;;;;;;;;;-144.99;100.00;52378.78;4947921;29;19942;-72
2022/06/03 05:16:28;;;;;;;;;;;;;;;-144.99;100.00;52391.03;4959467;28;19998;-72
2022/06/03 05:19:21;;;;;;;;;;;;;;;-144.99;100.00;52374.72;4926670;29;20247;-74
2022/06/03 05:22:18;;;;;;;;;;;;;;;-144.99;100.00;52382.88;4958342;28;19975;-73
2022/06/03 05:25:11;;;;;;;;;;;;;;;-144.99;100.00;52350.25;4938628;28;19975;-72
2022/06/03 05:27:54;;;;;;;;;;;;;;;-144.99;100.00;52403.25;4937497;28;19994;-72
2022/06/03 05:30:33;;;;;;;;;;;;;;;-144.99;100.00;52374.72;4964062;28;19979;-73
2022/06/03 05:33:12;;;;;;;;;;;;;;;-144.99;100.00;52380.84;4951514;28;19977;-73
2022/06/03 05:35:56;;;;;;;;;;;;;;;-144.99;100.00;52370.63;4951336;28;19973;-72
2022/06/03 05:38:43;;;;;;;;;;;;;;;-144.99;100.00;52378.78;4946173;29;20035;-65
2022/06/03 05:44:13;;;;;;;;;;;;;;;-144.99;100.00;52358.41;4939644;29;19997;-67
2022/06/03 05:46:48;;;;;;;;;;;;;;;-144.99;100.00;52342.09;4936452;29;20063;-69
2022/06/03 05:49:27;;;;;;;;;;;;;;;-144.99;100.00;52366.56;4942764;29;20236;-67
2022/06/03 05:52:01;;;;;;;;;;;;;;;-144.99;100.00;52338.03;4949532;29;19986;-67
2022/06/03 05:54:43;;;;;;;;;;;;;;;-144.99;100.00;52323.75;4946603;28;19976;-66
2022/06/03 05:57:16;;;;;;;;;;;;;;;-144.99;100.00;52323.75;4961363;28;19982;-65
2022/06/03 05:59:55;;;;;;;;;;;;;;;-144.99;100.00;52336.00;4964511;28;20007;-66
2022/06/03 06:02:24;;;;;;;;;;;;;;;-144.99;100.00;52325.81;4954342;28;19976;-67
2022/06/03 06:04:56;;;;;;;;;;;;;;;-144.99;100.00;52342.09;4952650;28;19979;-66
2022/06/03 06:07:27;;;;;;;;;;;;;;;-144.99;100.00;52313.56;4965819;28;19970;-66
2022/06/03 06:09:56;;;;;;;;;;;;;;;-144.99;100.00;52325.81;4957014;28;20310;-66
2022/06/03 06:12:28;;;;;;;;;;;;;;;-144.99;100.00;52301.34;4942151;29;20414;-66
2022/06/03 06:15:03;;;;;;;;;;;;;;;-144.99;100.00;52305.41;4932609;29;20051;-66
2022/06/03 06:17:48;;;;;;;;;;;;;;;-144.99;98.41;52327.84;4928528;29;19963;-66
2022/06/03 06:20:19;;;;;;;;;;;;;;;-144.99;96.45;52305.41;4934276;29;20073;-66
2022/06/03 06:22:48;;;;;;;;;;;;;;;-144.99;94.50;52305.41;4949871;29;19953;-67
2022/06/03 06:25:18;;;;;;;;;;;;;;;-144.99;93.68;52321.72;4954765;29;19979;-66
2022/06/03 06:27:58;;;;;;;;;;;;;;;-144.99;91.41;52311.53;4953097;28;19971;-67
2022/06/03 06:30:44;;;;;;;;;;;;;;;-144.99;89.05;52297.25;4958935;28;19981;-66
2022/06/03 06:33:31;;;;;;;;;;;;;;;-144.99;87.76;52313.56;4958800;28;19948;-67
2022/06/03 06:36:28;;;;;;;;;;;;;;;-144.99;85.01;52301.34;4924394;28;20136;-66
2022/06/03 06:39:02;;;;;;;;;;;;;;;-144.99;83.74;52317.66;4624469;28;10000512;-67
2022/06/03 06:41:36;;;;;;;;;;;;;;;-144.99;81.81;52313.56;4964697;28;19943;-66
2022/06/03 06:44:07;;;;;;;;;;;;;;;-144.99;81.81;52299.31;4960978;28;19933;-67
2022/06/03 06:46:38;;;;;;;;;;;;;;;-144.99;81.42;52232.03;4958960;28;19926;-67
2022/06/03 06:49:11;;;;;;;;;;;;;;;-144.99;80.33;52285.03;4958394;28;19929;-67
2022/06/03 06:51:48;;;;;;;;;;;;;;;-144.99;78.50;52276.88;4975794;23;20015;-67
2022/06/03 06:54:22;;;;;;;;;;;;;;;-144.99;76.98;52276.88;4927811;29;20419;-67
2022/06/03 06:56:51;;;;;;;;;;;;;;;-144.99;76.01;52293.19;4918731;29;20047;-68
2022/06/03 06:59:21;;;;;;;;;;;;;;;-144.99;75.11;52297.25;4920091;29;20025;-68
2022/06/03 07:01:50;;;;;;;;;;;;;;;-144.99;75.02;52291.16;4925028;29;20056;-68
2022/06/03 07:04:20;;;;;;;;;;;;;;;-144.99;74.95;52309.50;4922703;29;19955;-68
2022/06/03 07:06:49;;;;;;;;;;;;;;;-144.99;73.98;52313.56;4928407;29;19971;-67
2022/06/03 07:09:30;;;;;;;;;;;;;;;-144.99;71.39;52295.22;4928460;29;20006;-68
2022/06/03 07:11:59;;;;;;;;;;;;;;;-144.99;70.87;52276.88;4923550;29;20661;-68
2022/06/03 07:14:28;;;;;;;;;;;;;;;-144.99;70.89;52272.81;4926184;29;19940;-69
2022/06/03 07:19:50;;;;;;;;;;;;;;;-144.99;69.46;52293.19;4926353;29;20424;-69
2022/06/03 07:22:19;;;;;;;;;;;;;;;-144.99;68.91;52276.88;4925245;29;19957;-69
2022/06/03 07:24:51;;;;;;;;;;;;;;;-144.99;67.44;52260.56;4915023;29;20041;-69
2022/06/03 07:27:23;;;;;;;;;;;;;;;-144.99;67.38;52287.06;4926266;29;20395;-67
2022/06/03 07:29:57;;;;;;;;;;;;;;;-144.99;67.96;52305.41;4929606;29;19962;-69
2022/06/03 07:32:27;;;;;;;;;;;;;;;-144.99;68.93;52293.19;4922990;29;20036;-69
2022/06/03 07:34:55;;;;;;;;;;;;;;;-144.99;66.89;52297.25;4918066;29;20655;-67
2022/06/03 07:37:24;;;;;;;;;;;;;;;-144.99;67.55;52309.50;4926671;29;20430;-69
2022/06/03 07:39:55;;;;;;;;;;;;;;;-144.99;66.88;52264.66;4926487;29;20452;-69
2022/06/03 07:42:30;;;;;;;;;;;;;;;-144.99;65.52;52293.19;4921563;29;19947;-69
2022/06/03 07:45:05;;;;;;;;;;;;;;;-144.99;65.05;52268.72;4925608;29;20004;-69
2022/06/03 07:47:33;;;;;;;;;;;;;;;-144.99;64.37;52301.34;4927478;29;19997;-69
2022/06/03 07:50:01;;;;;;;;;;;;;;;-144.99;63.39;52260.56;4916047;29;20434;-69
2022/06/03 07:52:32;;;;;;;;;;;;;;;-144.99;62.18;52276.88;4925367;29;20026;-69
2022/06/03 07:55:05;;;;;;;;;;;;;;;-144.99;59.50;52283.00;4928105;29;19951;-68
2022/06/03 07:57:32;;;;;;;;;;;;;;;-144.99;57.50;52260.56;4924406;29;20311;-68
2022/06/03 08:00:00;;;;;;;;;;;;;;;-144.99;57.45;52268.72;4922216;29;20437;-69
2022/06/03 08:02:27;;;;;;;;;;;;;;;-144.99;53.88;52256.50;4929071;29;20380;-69
2022/06/03 08:05:03;;;;;;;;;;;;;;;-144.99;51.52;52287.06;4921836;29;20032;-69
2022/06/03 08:13:01;;;;;;;;;;;;;;;-144.99;47.83;52262.63;4926129;29;20050;-69
2022/06/03 08:15:29;;;;;;;;;;;;;;;-144.99;47.51;52268.72;4924107;29;20438;-69
2022/06/03 08:17:56;;;;;;;;;;;;;;;-144.99;46.77;52252.44;4925897;29;20005;-69
2022/06/03 08:20:24;;;;;;;;;;;;;;;-144.99;46.41;52289.13;4922517;29;20470;-69
2022/06/03 08:22:51;;;;;;;;;;;;;;;-144.99;47.60;52236.13;4924920;29;20452;-69
2022/06/03 08:25:21;;;;;;;;;;;;;;;-144.99;47.08;52258.53;4926214;29;19947;-69
2022/06/03 08:27:48;;;;;;;;;;;;;;;-144.99;47.12;52264.66;4926446;29;20325;-69
2022/06/03 08:30:19;;;;;;;;;;;;;;;-144.99;46.93;52268.72;4927406;29;20052;-69
2022/06/03 08:32:47;;;;;;;;;;;;;;;-144.99;45.64;52250.38;4924657;29;20344;-69
2022/06/03 08:35:15;;;;;;;;;;;;;;;-144.99;45.85;52293.19;4923770;29;19941;-69
2022/06/03 08:37:45;;;;;;;;;;;;;;;-144.99;45.37;52232.03;4928303;29;20100;-69
2022/06/03 08:40:17;;;;;;;;;;;;;;;-144.99;44.50;52240.19;4926204;29;20103;-69
2022/06/03 08:42:48;;;;;;;;;;;;;;;-144.99;45.08;52242.22;4918583;29;19965;-69
2022/06/03 08:45:17;;;;;;;;;;;;;;;-144.99;45.61;52211.66;4928262;29;19951;-68
2022/06/03 08:47:47;;;;;;;;;;;;;;;-144.99;45.39;52272.81;4921678;29;19933;-69
2022/06/03 08:50:22;;;;;;;;;;;;;;;-144.99;45.15;52276.88;4922225;29;20428;-69
2022/06/03 08:52:52;;;;;;;;;;;;;;;-144.99;44.46;52256.50;4927887;29;19988;-69
2022/06/03 08:55:26;;;;;;;;;;;;;;;-144.99;45.16;52268.72;4928187;29;20150;-69
2022/06/03 08:57:57;;;;;;;;;;;;;;;-144.99;45.72;52276.88;4923569;29;19969;-69
2022/06/03 09:00:29;;;;;;;;;;;;;;;-144.99;45.40;52221.84;4922434;29;20034;-69
2022/06/03 09:02:59;;;;;;;;;;;;;;;-144.99;44.05;52260.56;4916765;29;19942;-69
2022/06/03 09:05:27;;;;;;;;;;;;;;;-144.99;43.66;52236.13;4586849;29;9999922;-69
2022/06/03 09:07:58;;;;;;;;;;;;;;;-144.99;44.35;52223.88;4921994;29;19965;-70
2022/06/03 09:10:29;;;;;;;;;;;;;;;-144.99;42.76;52252.44;4924224;29;20036;-69
2022/06/03 09:12:59;;;;;;;;;;;;;;;-144.99;43.58;52215.75;4921719;29;19962;-70
2022/06/03 09:15:27;;;;;;;;;;;;;;;-144.99;42.75;52203.50;4921576;29;20041;-68
2022/06/03 09:17:56;;;;;;;;;;;;;;;-144.99;42.02;52211.66;4926062;29;20392;-69
2022/06/03 09:20:25;;;;;;;;;;;;;;;-144.99;42.87;52195.34;4922798;29;20662;-70
2022/06/03 09:22:56;;;;;;;;;;;;;;;-144.99;42.37;52240.19;4924204;29;19941;-70
2022/06/03 09:25:23;;;;;;;;;;;;;;;-144.99;42.60;52215.75;4928783;29;19930;-69
2022/06/03 09:27:51;;;;;;;;;;;;;;;-144.99;41.93;52219.81;4921644;29;20008;-68
2022/06/03 09:30:25;;;;;;;;;;;;;;;-144.99;41.54;52187.19;4923114;29;19967;-69
2022/06/03 09:32:51;;;;;;;;;;;;;;;-144.99;40.91;52203.50;4925667;29;19966;-69
2022/06/03 09:35:20;;;;;;;;;;;;;;;-144.99;41.62;52215.75;4921821;29;19977;-70
2022/06/03 09:37:49;;;;;;;;;;;;;;;-144.99;40.96;52223.88;4924836;29;20033;-69
2022/06/03 09:40:18;;;;;;;;;;;;;;;-144.99;40.47;52227.97;4929888;29;19994;-69
2022/06/03 09:42:49;;;;;;;;;;;;;;;-144.99;40.30;52179.06;4927116;29;20041;-70
2022/06/03 09:45:20;;;;;;;;;;;;;;;-144.99;40.03;52211.66;4920907;29;19970;-71
2022/06/03 09:47:48;;;;;;;;;;;;;;;-144.99;40.19;52179.06;4925140;29;19974;-70
2022/06/03 09:50:15;;;;;;;;;;;;;;;-144.99;39.98;52219.81;4927120;29;20180;-69
2022/06/03 09:52:42;;;;;;;;;;;;;;;-144.99;40.14;52195.34;4920830;29;20010;-68
2022/06/03 09:55:18;;;;;;;;;;;;;;;-144.99;39.90;52219.81;4916780;29;19931;-69
2022/06/03 09:57:45;;;;;;;;;;;;;;;-144.99;39.94;52162.75;4919929;29;19975;-69
2022/06/03 10:00:15;;;;;;;;;;;;;;;-144.99;39.85;52179.06;4923353;29;20230;-69
2022/06/03 10:02:42;;;;;;;;;;;;;;;-144.99;39.63;52203.50;4929304;29;19986;-69
2022/06/03 10:05:12;;;;;;;;;;;;;;;-144.99;38.95;52211.66;4928314;29;19927;-69
2022/06/03 10:07:38;;;;;;;;;;;;;;;-144.99;39.32;52142.38;4920968;29;19974;-70
2022/06/03 10:12:53;;;;;;;;;;;;;;;-144.99;39.33;52166.81;4929033;29;20390;-69
2022/06/03 10:15:39;;;;;;;;;;;;;;;-144.99;39.19;52158.66;4932244;29;20352;-70
2022/06/03 10:18:08;;;;;;;;;;;;;;;-144.99;38.44;52166.81;4925545;29;19946;-70
2022/06/03 10:20:36;;;;;;;;;;;;;;;-144.99;37.66;52162.75;4926079;29;19985;-71
2022/06/03 10:23:03;;;;;;;;;;;;;;;-144.99;37.87;52170.91;4927675;29;20037;-70
2022/06/03 10:25:29;;;;;;;;;;;;;;;-144.99;37.03;52152.56;4924396;29;19927;-70
2022/06/03 10:27:56;;;;;;;;;;;;;;;-144.99;36.53;52126.06;4925972;29;19991;-70
2022/06/03 10:30:26;;;;;;;;;;;;;;;-144.99;36.33;52130.13;4918711;29;20324;-70
2022/06/03 10:32:53;;;;;;;;;;;;;;;-144.99;36.04;52146.44;4931017;29;19942;-70
2022/06/03 10:35:26;;;;;;;;;;;;;;;-144.99;36.81;52121.97;4923692;29;19942;-70
2022/06/03 10:37:54;;;;;;;;;;;;;;;-144.99;36.70;52119.94;4920732;29;19931;-65
2022/06/03 10:40:21;;;;;;;;;;;;;;;-144.99;36.57;52095.50;4930607;29;19962;-67
2022/06/03 10:42:48;;;;;;;;;;;;;;;-144.99;35.01;52121.97;4930098;29;20394;-65
2022/06/03 10:45:15;;;;;;;;;;;;;;;-144.99;35.73;52097.53;4923847;29;19939;-65
2022/06/03 10:47:43;;;;;;;;;;;;;;;-144.99;35.28;52134.22;4928416;29;20044;-65
2022/06/03 10:50:12;;;;;;;;;;;;;;;-144.99;35.15;52124.03;4916931;29;19937;-65
2022/06/03 11:01:12;;;;;;;;;;;;;;;-144.99;34.01;52081.22;4927954;29;19938;-66
2022/06/03 11:03:41;;;;;;;;;;;;;;;-144.99;33.37;52071.03;4930831;29;20009;-64
2022/06/03 11:06:08;;;;;;;;;;;;;;;-144.99;33.31;52073.06;4917651;29;20042;-65
2022/06/03 11:08:49;;;;;;;;;;;;;;;-144.99;33.27;52042.50;4924860;29;20014;-66
2022/06/03 11:11:30;;;;;;;;;;;;;;;-144.99;32.44;52089.38;4916774;29;19995;-66
2022/06/03 11:13:56;;;;;;;;;;;;;;;-144.99;32.33;52083.25;4920082;29;20428;-64
2022/06/03 11:16:24;;;;;;;;;;;;;;;-144.99;32.39;52044.53;4923541;29;20451;-64
2022/06/03 11:18:50;;;;;;;;;;;;;;;-144.99;31.97;52089.38;4925688;29;19938;-64
2022/06/03 11:21:19;;;;;;;;;;;;;;;-144.99;31.45;52064.91;4917117;29;20106;-64
2022/06/03 11:23:45;;;;;;;;;;;;;;;-144.99;31.82;52048.63;4925168;29;20590;-64
2022/06/03 11:26:12;;;;;;;;;;;;;;;-144.99;31.50;52016.00;4927267;29;20325;-64
2022/06/03 11:28:44;;;;;;;;;;;;;;;-144.99;31.81;52048.63;4923195;29;19937;-64
2022/06/03 11:31:13;;;;;;;;;;;;;;;-144.99;31.46;52085.31;4920679;29;19987;-64
2022/06/03 11:33:43;;;;;;;;;;;;;;;-144.99;31.32;52073.06;4925878;29;20057;-64
2022/06/03 11:36:14;;;;;;;;;;;;;;;-144.99;30.22;52085.31;4926308;29;19937;-62
2022/06/03 11:38:42;;;;;;;;;;;;;;;-144.99;30.22;52024.16;4925230;29;20407;-63
2022/06/03 11:41:13;;;;;;;;;;;;;;;-144.99;31.04;52020.09;4930406;29;19979;-64
2022/06/03 11:43:44;;;;;;;;;;;;;;;-144.99;30.49;52050.66;4925891;29;19981;-62
2022/06/03 11:46:13;;;;;;;;;;;;;;;-144.99;30.39;52056.78;4920761;29;19974;-62
2022/06/03 11:48:41;;;;;;;;;;;;;;;-144.99;29.66;52058.81;4919858;29;19930;-62
2022/06/03 11:51:09;;;;;;;;;;;;;;;-144.99;30.40;52032.31;4927641;29;20333;-63
2022/06/03 11:53:39;;;;;;;;;;;;;;;-144.99;30.47;52083.25;4923528;29;19962;-63
2022/06/03 11:56:08;;;;;;;;;;;;;;;-144.99;29.74;52048.63;4924307;29;19930;-63
2022/06/03 11:58:41;;;;;;;;;;;;;;;-144.99;29.90;52085.31;4922359;29;19927;-63
2022/06/03 12:01:12;;;;;;;;;;;;;;;-144.99;30.27;52056.78;4921886;29;20027;-63
2022/06/03 12:03:43;;;;;;;;;;;;;;;-144.99;30.11;52069.00;4926216;29;19931;-64
2022/06/03 12:06:11;;;;;;;;;;;;;;;-144.99;30.16;52048.63;4926114;29;19937;-63
2022/06/03 12:08:46;;;;;;;;;;;;;;;-144.99;30.16;52060.84;4926922;29;19934;-62
2022/06/03 12:13:14;;;;;;;;;;;;;;;-144.99;30.24;52081.22;4915955;29;19935;-64
2022/06/03 12:14:18;;;;;;;;;;;;;;;-144.99;30.28;52064.91;4923954;29;20389;-64
2022/06/03 12:16:56;;;;;;;;;;;;;;;-144.99;30.08;52069.00;4929057;29;19942;-64
2022/06/03 12:19:38;;;;;;;;;;;;;;;-144.99;30.08;52060.84;4929504;29;19934;-64
2022/06/03 12:22:25;;;;;;;;;;;;;;;-144.99;30.00;52069.00;4925709;29;19933;-64
2022/06/03 12:24:53;;;;;;;;;;;;;;;-144.99;30.23;52073.06;4915801;29;20468;-62
2022/06/03 12:27:25;;;;;;;;;;;;;;;-144.99;29.65;52040.47;4924882;29;20026;-63
2022/06/03 12:30:18;;;;;;;;;;;;;;;-144.99;30.99;52095.50;4929572;29;19977;-63
2022/06/03 12:32:52;;;;;;;;;;;;;;;-144.99;31.79;52134.22;4922362;29;19931;-63
2022/06/03 12:35:47;;;;;;;;;;;;;;;-144.99;32.92;52111.78;4918508;29;19966;-64
2022/06/03 12:38:32;;;;;;;;;;;;;;;-144.99;32.16;52166.81;4892598;29;19938;-64
2022/06/03 12:40:59;;;;;;;;;;;;;;;-144.99;31.94;52158.66;4929388;29;19933;-64
2022/06/03 12:43:30;;;;;;;;;;;;;;;-144.99;31.45;52138.28;4926253;29;19937;-64
2022/06/03 12:45:59;;;;;;;;;;;;;;;-144.99;31.62;52142.38;4921840;29;19941;-65
2022/06/03 12:48:51;;;;;;;;;;;;;;;-144.99;31.74;52113.84;5138122;27;19916;-63
2022/06/03 12:51:23;;;;;;;;;;;;;;;-144.99;31.93;52146.44;5121300;27;19923;-62
2022/06/03 12:53:51;;;;;;;;;;;;;;;-144.99;32.13;52113.84;5114103;22;19925;-63
2022/06/03 12:56:35;;;;;;;;;;;;;;;-144.99;31.85;52105.69;5066024;28;19972;-63
2022/06/03 12:59:12;;;;;;;;;;;;;;;-144.99;31.90;52095.50;5036613;28;19925;-62
2022/06/03 13:01:45;;;;;;;;;;;;;;;-144.99;31.51;52097.53;5036925;28;19929;-64
2022/06/03 13:04:42;;;;;;;;;;;;;;;-144.99;31.14;52064.91;5042798;28;20543;-62
2022/06/03 13:07:29;;;;;;;;;;;;;;;-144.99;31.50;52073.06;5034748;28;19930;-63
2022/06/03 13:10:12;;;;;;;;;;;;;;;-144.99;30.98;52095.50;5018464;28;19993;-63
2022/06/03 13:12:46;;;;;;;;;;;;;;;-144.99;31.73;52134.22;5035777;28;19935;-63
2022/06/03 13:15:31;;;;;;;;;;;;;;;-144.99;32.77;52179.06;5031205;28;20365;-64
2022/06/03 13:17:59;;;;;;;;;;;;;;;-144.99;32.82;52207.59;5030181;28;19929;-60
2022/06/03 13:20:36;;;;;;;;;;;;;;;-144.99;32.62;52223.88;5038324;28;19935;-58
2022/06/03 13:23:02;;;;;;;;;;;;;;;-144.99;32.53;52207.59;5037624;28;20020;-56
2022/06/03 13:25:35;;;;;;;;;;;;;;;-144.99;32.11;52195.34;5036499;28;20083;-56
2022/06/03 13:28:20;;;;;;;;;;;;;;;-144.99;33.12;52189.25;5035451;28;19995;-57
2022/06/03 13:31:03;;;;;;;;;;;;;;;-144.99;33.31;52223.88;5031226;28;20667;-57
2022/06/03 13:33:30;;;;;;;;;;;;;;;-144.99;33.02;52203.50;5026537;28;20386;-57
2022/06/03 13:36:02;;;;;;;;;;;;;;;-144.99;32.88;52154.59;5039136;28;19925;-57